sensor_id;sensor_type;location;lat;lon;timestamp;temperature;humidity
16313;DHT22;8265;52.622;13.296;2023-06-10T00:02:31;14.20;81.40
16313;DHT22;8265;52.622;13.296;2023-06-10T00:07:52;14.00;81.70
16313;DHT22;8265;52.622;13.296;2023-06-10T00:13:13;13.90;82.40
16313;DHT22;8265;52.622;13.296;2023-06-10T00:18:34;13.70;83.10
16313;DHT22;8265;52.622;13.296;2023-06-10T00:23:55;13.60;83.30
16313;DHT22;8265;52.622;13.296;2023-06-10T00:29:16;13.90;82.60
16313;DHT22;8265;52.622;13.296;2023-06-10T00:34:37;13.60;83.20
16313;DHT22;8265;52.622;13.296;2023-06-10T00:39:58;13.60;83.20
16313;DHT22;8265;52.622;13.296;2023-06-10T00:45:19;13.70;83.10
16313;DHT22;8265;52.622;13.296;2023-06-10T00:50:40;13.50;83.50
16313;DHT22;8265;52.622;13.296;2023-06-10T00:56:01;13.30;84.30
16313;DHT22;8265;52.622;13.296;2023-06-10T01:01:22;13.30;84.50
16313;DHT22;8265;52.622;13.296;2023-06-10T01:12:18;13.50;84.10
16313;DHT22;8265;52.622;13.296;2023-06-10T01:17:25;13.30;84.70
16313;DHT22;8265;52.622;13.296;2023-06-10T01:22:46;13.30;84.60
16313;DHT22;8265;52.622;13.296;2023-06-10T01:28:11;13.10;85.10
16313;DHT22;8265;52.622;13.296;2023-06-10T01:33:29;13.10;85.00
16313;DHT22;8265;52.622;13.296;2023-06-10T01:38:49;13.10;85.10
16313;DHT22;8265;52.622;13.296;2023-06-10T01:44:10;13.10;85.20
16313;DHT22;8265;52.622;13.296;2023-06-10T01:49:31;13.10;85.30
16313;DHT22;8265;52.622;13.296;2023-06-10T01:54:52;13.00;85.50
16313;DHT22;8265;52.622;13.296;2023-06-10T02:00:13;12.90;85.90
16313;DHT22;8265;52.622;13.296;2023-06-10T02:05:34;12.90;86.20
16313;DHT22;8265;52.622;13.296;2023-06-10T02:10:55;12.90;85.70
16313;DHT22;8265;52.622;13.296;2023-06-10T02:16:16;12.80;86.40
16313;DHT22;8265;52.622;13.296;2023-06-10T02:21:37;12.80;86.60
16313;DHT22;8265;52.622;13.296;2023-06-10T02:26:58;12.70;86.50
16313;DHT22;8265;52.622;13.296;2023-06-10T02:32:19;12.80;86.40
16313;DHT22;8265;52.622;13.296;2023-06-10T02:37:40;12.70;86.70
16313;DHT22;8265;52.622;13.296;2023-06-10T02:43:01;12.50;87.10
16313;DHT22;8265;52.622;13.296;2023-06-10T02:48:25;12.70;87.20
16313;DHT22;8265;52.622;13.296;2023-06-10T02:53:43;12.90;86.20
16313;DHT22;8265;52.622;13.296;2023-06-10T02:59:04;12.70;86.60
16313;DHT22;8265;52.622;13.296;2023-06-10T03:04:25;12.60;87.10
16313;DHT22;8265;52.622;13.296;2023-06-10T03:09:46;12.60;87.20
16313;DHT22;8265;52.622;13.296;2023-06-10T03:15:07;12.50;87.40
16313;DHT22;8265;52.622;13.296;2023-06-10T03:20:28;12.50;87.70
16313;DHT22;8265;52.622;13.296;2023-06-10T03:25:49;12.50;87.60
16313;DHT22;8265;52.622;13.296;2023-06-10T03:31:10;12.70;87.20
16313;DHT22;8265;52.622;13.296;2023-06-10T03:36:31;12.60;87.50
16313;DHT22;8265;52.622;13.296;2023-06-10T03:41:52;12.70;87.50
16313;DHT22;8265;52.622;13.296;2023-06-10T03:47:13;12.70;87.40
16313;DHT22;8265;52.622;13.296;2023-06-10T03:52:34;12.90;87.20
16313;DHT22;8265;52.622;13.296;2023-06-10T03:57:55;13.00;87.40
16313;DHT22;8265;52.622;13.296;2023-06-10T04:03:16;13.10;86.50
16313;DHT22;8265;52.622;13.296;2023-06-10T04:08:37;13.00;86.70
16313;DHT22;8265;52.622;13.296;2023-06-10T04:13:58;13.00;87.00
16313;DHT22;8265;52.622;13.296;2023-06-10T04:19:19;13.10;86.20
16313;DHT22;8265;52.622;13.296;2023-06-10T04:24:40;13.40;85.40
16313;DHT22;8265;52.622;13.296;2023-06-10T04:30:01;13.50;85.30
16313;DHT22;8265;52.622;13.296;2023-06-10T04:35:22;13.60;84.60
16313;DHT22;8265;52.622;13.296;2023-06-10T04:40:43;13.70;84.30
16313;DHT22;8265;52.622;13.296;2023-06-10T04:46:04;13.70;84.40
16313;DHT22;8265;52.622;13.296;2023-06-10T04:51:24;13.90;83.80
16313;DHT22;8265;52.622;13.296;2023-06-10T04:56:45;14.10;83.00
16313;DHT22;8265;52.622;13.296;2023-06-10T05:02:07;14.20;82.60
16313;DHT22;8265;52.622;13.296;2023-06-10T05:07:27;14.60;81.50
16313;DHT22;8265;52.622;13.296;2023-06-10T05:12:49;15.10;79.40
16313;DHT22;8265;52.622;13.296;2023-06-10T05:18:10;15.40;79.00
16313;DHT22;8265;52.622;13.296;2023-06-10T05:23:31;15.40;78.40
16313;DHT22;8265;52.622;13.296;2023-06-10T05:28:52;15.30;78.90
16313;DHT22;8265;52.622;13.296;2023-06-10T05:34:12;15.30;79.00
16313;DHT22;8265;52.622;13.296;2023-06-10T05:39:35;15.30;79.50
16313;DHT22;8265;52.622;13.296;2023-06-10T05:44:54;15.50;78.40
16313;DHT22;8265;52.622;13.296;2023-06-10T05:50:15;15.70;77.80
16313;DHT22;8265;52.622;13.296;2023-06-10T05:55:36;15.80;77.70
16313;DHT22;8265;52.622;13.296;2023-06-10T06:00:58;16.10;76.90
16313;DHT22;8265;52.622;13.296;2023-06-10T06:06:18;16.30;76.50
16313;DHT22;8265;52.622;13.296;2023-06-10T06:11:40;16.60;75.70
16313;DHT22;8265;52.622;13.296;2023-06-10T06:17:00;16.90;75.40
16313;DHT22;8265;52.622;13.296;2023-06-10T06:22:21;17.20;73.00
16313;DHT22;8265;52.622;13.296;2023-06-10T06:27:42;17.50;72.00
16313;DHT22;8265;52.622;13.296;2023-06-10T06:33:03;17.80;71.50
16313;DHT22;8265;52.622;13.296;2023-06-10T06:38:24;17.90;71.60
16313;DHT22;8265;52.622;13.296;2023-06-10T06:43:45;17.90;71.00
16313;DHT22;8265;52.622;13.296;2023-06-10T06:49:06;18.20;71.00
16313;DHT22;8265;52.622;13.296;2023-06-10T06:54:27;18.60;69.60
16313;DHT22;8265;52.622;13.296;2023-06-10T06:59:48;19.00;67.60
16313;DHT22;8265;52.622;13.296;2023-06-10T07:05:10;19.30;67.20
16313;DHT22;8265;52.622;13.296;2023-06-10T07:10:30;19.70;66.00
16313;DHT22;8265;52.622;13.296;2023-06-10T07:15:51;20.30;63.10
16313;DHT22;8265;52.622;13.296;2023-06-10T07:21:12;20.60;62.20
16313;DHT22;8265;52.622;13.296;2023-06-10T07:26:34;20.50;62.50
16313;DHT22;8265;52.622;13.296;2023-06-10T07:31:55;20.30;62.50
16313;DHT22;8265;52.622;13.296;2023-06-10T07:37:16;20.80;62.20
16313;DHT22;8265;52.622;13.296;2023-06-10T07:42:36;21.50;61.40
16313;DHT22;8265;52.622;13.296;2023-06-10T07:47:57;22.20;59.40
16313;DHT22;8265;52.622;13.296;2023-06-10T07:53:18;22.60;57.10
16313;DHT22;8265;52.622;13.296;2023-06-10T07:58:39;22.60;57.90
16313;DHT22;8265;52.622;13.296;2023-06-10T08:04:01;22.20;57.80
16313;DHT22;8265;52.622;13.296;2023-06-10T08:09:22;22.00;58.70
16313;DHT22;8265;52.622;13.296;2023-06-10T08:14:43;22.00;59.70
16313;DHT22;8265;52.622;13.296;2023-06-10T08:20:04;22.00;59.30
16313;DHT22;8265;52.622;13.296;2023-06-10T08:25:25;22.10;59.20
16313;DHT22;8265;52.622;13.296;2023-06-10T08:30:46;22.00;59.30
16313;DHT22;8265;52.622;13.296;2023-06-10T08:36:07;22.20;59.80
16313;DHT22;8265;52.622;13.296;2023-06-10T08:41:28;22.70;57.90
16313;DHT22;8265;52.622;13.296;2023-06-10T08:46:49;23.10;57.40
16313;DHT22;8265;52.622;13.296;2023-06-10T08:52:11;23.10;57.30
16313;DHT22;8265;52.622;13.296;2023-06-10T08:57:31;23.20;56.60
16313;DHT22;8265;52.622;13.296;2023-06-10T09:02:52;23.10;57.90
16313;DHT22;8265;52.622;13.296;2023-06-10T09:08:13;22.90;58.20
16313;DHT22;8265;52.622;13.296;2023-06-10T09:13:34;23.00;58.50
16313;DHT22;8265;52.622;13.296;2023-06-10T09:18:55;22.80;57.80
16313;DHT22;8265;52.622;13.296;2023-06-10T09:24:16;22.50;59.10
16313;DHT22;8265;52.622;13.296;2023-06-10T09:29:55;22.70;59.40
16313;DHT22;8265;52.622;13.296;2023-06-10T09:34:58;22.50;60.10
16313;DHT22;8265;52.622;13.296;2023-06-10T09:40:19;22.90;59.00
16313;DHT22;8265;52.622;13.296;2023-06-10T09:45:40;23.00;58.50
16313;DHT22;8265;52.622;13.296;2023-06-10T09:51:00;23.00;57.50
16313;DHT22;8265;52.622;13.296;2023-06-10T09:56:22;23.00;58.60
16313;DHT22;8265;52.622;13.296;2023-06-10T10:01:43;22.60;58.90
16313;DHT22;8265;52.622;13.296;2023-06-10T10:07:04;22.30;59.70
16313;DHT22;8265;52.622;13.296;2023-06-10T10:12:24;21.90;62.20
16313;DHT22;8265;52.622;13.296;2023-06-10T10:17:47;21.70;61.30
16313;DHT22;8265;52.622;13.296;2023-06-10T10:23:06;21.30;62.20
16313;DHT22;8265;52.622;13.296;2023-06-10T10:28:29;21.10;63.90
16313;DHT22;8265;52.622;13.296;2023-06-10T10:33:52;20.80;64.30
16313;DHT22;8265;52.622;13.296;2023-06-10T10:39:09;20.50;67.50
16313;DHT22;8265;52.622;13.296;2023-06-10T10:44:31;20.40;69.30
16313;DHT22;8265;52.622;13.296;2023-06-10T10:49:51;20.50;69.30
16313;DHT22;8265;52.622;13.296;2023-06-10T10:55:12;20.70;69.90
16313;DHT22;8265;52.622;13.296;2023-06-10T11:05:54;21.50;64.80
16313;DHT22;8265;52.622;13.296;2023-06-10T11:11:25;21.90;62.30
16313;DHT22;8265;52.622;13.296;2023-06-10T11:16:43;22.50;61.30
16313;DHT22;8265;52.622;13.296;2023-06-10T11:22:01;22.90;58.80
16313;DHT22;8265;52.622;13.296;2023-06-10T11:27:19;23.50;59.70
16313;DHT22;8265;52.622;13.296;2023-06-10T11:32:39;24.10;56.20
16313;DHT22;8265;52.622;13.296;2023-06-10T11:38:00;24.20;56.70
16313;DHT22;8265;52.622;13.296;2023-06-10T11:43:21;23.90;58.30
16313;DHT22;8265;52.622;13.296;2023-06-10T11:48:51;23.60;59.70
16313;DHT22;8265;52.622;13.296;2023-06-10T11:54:03;23.50;58.20
16313;DHT22;8265;52.622;13.296;2023-06-10T11:59:26;22.90;58.70
16313;DHT22;8265;52.622;13.296;2023-06-10T12:04:45;23.20;59.90
16313;DHT22;8265;52.622;13.296;2023-06-10T12:10:07;23.40;59.20
16313;DHT22;8265;52.622;13.296;2023-06-10T12:15:27;24.10;58.70
16313;DHT22;8265;52.622;13.296;2023-06-10T12:20:49;24.20;57.70
16313;DHT22;8265;52.622;13.296;2023-06-10T12:26:09;24.50;56.60
16313;DHT22;8265;52.622;13.296;2023-06-10T12:31:30;24.60;56.20
16313;DHT22;8265;52.622;13.296;2023-06-10T12:36:51;24.70;55.50
16313;DHT22;8265;52.622;13.296;2023-06-10T12:42:12;25.80;51.40
16313;DHT22;8265;52.622;13.296;2023-06-10T12:47:34;27.10;48.80
16313;DHT22;8265;52.622;13.296;2023-06-10T12:52:54;27.60;47.60
16313;DHT22;8265;52.622;13.296;2023-06-10T12:58:15;28.10;47.50
16313;DHT22;8265;52.622;13.296;2023-06-10T13:03:37;28.00;47.50
16313;DHT22;8265;52.622;13.296;2023-06-10T13:08:57;28.50;48.00
16313;DHT22;8265;52.622;13.296;2023-06-10T13:14:18;28.80;47.00
16313;DHT22;8265;52.622;13.296;2023-06-10T13:19:39;29.00;46.10
16313;DHT22;8265;52.622;13.296;2023-06-10T13:25:00;29.40;47.50
16313;DHT22;8265;52.622;13.296;2023-06-10T13:30:21;29.60;45.50
16313;DHT22;8265;52.622;13.296;2023-06-10T13:35:42;29.40;44.50
16313;DHT22;8265;52.622;13.296;2023-06-10T13:41:03;29.40;43.40
16313;DHT22;8265;52.622;13.296;2023-06-10T13:46:24;29.90;43.60
16313;DHT22;8265;52.622;13.296;2023-06-10T13:51:45;29.90;42.30
16313;DHT22;8265;52.622;13.296;2023-06-10T13:57:06;30.00;43.00
16313;DHT22;8265;52.622;13.296;2023-06-10T14:02:27;30.50;42.90
16313;DHT22;8265;52.622;13.296;2023-06-10T14:07:48;31.20;40.90
16313;DHT22;8265;52.622;13.296;2023-06-10T14:13:09;31.70;40.00
16313;DHT22;8265;52.622;13.296;2023-06-10T14:18:30;32.60;39.60
16313;DHT22;8265;52.622;13.296;2023-06-10T14:23:51;32.80;37.30
16313;DHT22;8265;52.622;13.296;2023-06-10T14:29:12;33.10;36.10
16313;DHT22;8265;52.622;13.296;2023-06-10T14:34:33;33.60;34.70
16313;DHT22;8265;52.622;13.296;2023-06-10T14:39:54;33.50;34.10
16313;DHT22;8265;52.622;13.296;2023-06-10T14:45:15;33.70;33.70
16313;DHT22;8265;52.622;13.296;2023-06-10T14:50:39;33.70;32.90
16313;DHT22;8265;52.622;13.296;2023-06-10T14:55:57;34.20;32.00
16313;DHT22;8265;52.622;13.296;2023-06-10T15:01:18;33.90;33.30
16313;DHT22;8265;52.622;13.296;2023-06-10T15:06:39;34.00;33.70
16313;DHT22;8265;52.622;13.296;2023-06-10T15:12:00;33.80;32.60
16313;DHT22;8265;52.622;13.296;2023-06-10T15:17:21;33.60;33.20
16313;DHT22;8265;52.622;13.296;2023-06-10T15:22:42;33.70;32.90
16313;DHT22;8265;52.622;13.296;2023-06-10T15:28:03;34.20;31.80
16313;DHT22;8265;52.622;13.296;2023-06-10T15:33:24;34.40;31.30
16313;DHT22;8265;52.622;13.296;2023-06-10T15:38:45;34.80;30.90
16313;DHT22;8265;52.622;13.296;2023-06-10T15:44:06;34.80;30.60
16313;DHT22;8265;52.622;13.296;2023-06-10T15:49:27;33.90;31.70
16313;DHT22;8265;52.622;13.296;2023-06-10T15:54:48;33.30;32.80
16313;DHT22;8265;52.622;13.296;2023-06-10T16:00:09;33.30;32.70
16313;DHT22;8265;52.622;13.296;2023-06-10T16:05:30;32.20;35.00
16313;DHT22;8265;52.622;13.296;2023-06-10T16:10:51;32.50;34.10
16313;DHT22;8265;52.622;13.296;2023-06-10T16:16:12;32.20;34.30
16313;DHT22;8265;52.622;13.296;2023-06-10T16:21:33;32.20;35.30
16313;DHT22;8265;52.622;13.296;2023-06-10T16:26:54;32.50;33.90
16313;DHT22;8265;52.622;13.296;2023-06-10T16:32:15;32.80;34.30
16313;DHT22;8265;52.622;13.296;2023-06-10T16:37:36;34.20;33.60
16313;DHT22;8265;52.622;13.296;2023-06-10T16:42:57;34.60;32.50
16313;DHT22;8265;52.622;13.296;2023-06-10T16:48:18;34.40;33.50
16313;DHT22;8265;52.622;13.296;2023-06-10T16:53:39;34.00;31.50
16313;DHT22;8265;52.622;13.296;2023-06-10T16:59:01;33.60;31.10
16313;DHT22;8265;52.622;13.296;2023-06-10T17:04:21;34.00;30.50
16313;DHT22;8265;52.622;13.296;2023-06-10T17:09:43;34.10;30.00
16313;DHT22;8265;52.622;13.296;2023-06-10T17:15:04;33.40;31.70
16313;DHT22;8265;52.622;13.296;2023-06-10T17:20:24;32.80;30.70
16313;DHT22;8265;52.622;13.296;2023-06-10T17:25:45;33.20;31.80
16313;DHT22;8265;52.622;13.296;2023-06-10T17:31:06;33.00;32.40
16313;DHT22;8265;52.622;13.296;2023-06-10T17:36:27;32.70;33.80
16313;DHT22;8265;52.622;13.296;2023-06-10T17:41:49;31.80;37.50
16313;DHT22;8265;52.622;13.296;2023-06-10T17:47:09;31.50;37.80
16313;DHT22;8265;52.622;13.296;2023-06-10T17:52:30;30.50;36.90
16313;DHT22;8265;52.622;13.296;2023-06-10T17:57:51;29.10;36.20
16313;DHT22;8265;52.622;13.296;2023-06-10T18:03:12;27.80;39.00
16313;DHT22;8265;52.622;13.296;2023-06-10T18:08:33;26.80;43.10
16313;DHT22;8265;52.622;13.296;2023-06-10T18:13:54;25.90;44.00
16313;DHT22;8265;52.622;13.296;2023-06-10T18:19:15;25.10;43.20
16313;DHT22;8265;52.622;13.296;2023-06-10T18:24:36;24.50;43.00
16313;DHT22;8265;52.622;13.296;2023-06-10T18:29:57;24.20;44.60
16313;DHT22;8265;52.622;13.296;2023-06-10T18:35:19;23.90;46.60
16313;DHT22;8265;52.622;13.296;2023-06-10T18:40:39;23.80;47.30
16313;DHT22;8265;52.622;13.296;2023-06-10T18:46:01;23.50;45.00
16313;DHT22;8265;52.622;13.296;2023-06-10T18:51:21;23.40;49.10
16313;DHT22;8265;52.622;13.296;2023-06-10T18:56:42;23.40;46.50
16313;DHT22;8265;52.622;13.296;2023-06-10T19:02:03;23.60;48.50
16313;DHT22;8265;52.622;13.296;2023-06-10T19:07:24;23.50;47.70
16313;DHT22;8265;52.622;13.296;2023-06-10T19:12:45;23.20;49.30
16313;DHT22;8265;52.622;13.296;2023-06-10T19:18:07;23.00;48.70
16313;DHT22;8265;52.622;13.296;2023-06-10T19:23:27;22.80;51.90
16313;DHT22;8265;52.622;13.296;2023-06-10T19:28:48;22.50;52.30
16313;DHT22;8265;52.622;13.296;2023-06-10T19:34:09;22.30;51.30
16313;DHT22;8265;52.622;13.296;2023-06-10T19:39:30;22.20;54.10
16313;DHT22;8265;52.622;13.296;2023-06-10T19:44:51;22.00;53.10
16313;DHT22;8265;52.622;13.296;2023-06-10T19:50:12;21.90;52.80
16313;DHT22;8265;52.622;13.296;2023-06-10T19:55:33;21.90;52.30
16313;DHT22;8265;52.622;13.296;2023-06-10T20:00:54;21.80;52.10
16313;DHT22;8265;52.622;13.296;2023-06-10T20:06:15;21.50;52.80
16313;DHT22;8265;52.622;13.296;2023-06-10T20:11:36;21.60;50.80
16313;DHT22;8265;52.622;13.296;2023-06-10T20:16:57;21.60;51.50
16313;DHT22;8265;52.622;13.296;2023-06-10T20:22:19;21.30;52.10
16313;DHT22;8265;52.622;13.296;2023-06-10T20:27:39;21.10;53.30
16313;DHT22;8265;52.622;13.296;2023-06-10T20:33:00;20.80;52.00
16313;DHT22;8265;52.622;13.296;2023-06-10T20:38:21;20.80;51.40
16313;DHT22;8265;52.622;13.296;2023-06-10T20:43:42;20.60;51.60
16313;DHT22;8265;52.622;13.296;2023-06-10T20:49:03;20.50;51.40
16313;DHT22;8265;52.622;13.296;2023-06-10T20:54:24;20.50;51.00
16313;DHT22;8265;52.622;13.296;2023-06-10T20:59:45;20.40;50.30
16313;DHT22;8265;52.622;13.296;2023-06-10T21:05:06;20.20;52.10
16313;DHT22;8265;52.622;13.296;2023-06-10T21:10:27;20.10;52.90
16313;DHT22;8265;52.622;13.296;2023-06-10T21:15:48;20.10;50.70
16313;DHT22;8265;52.622;13.296;2023-06-10T21:21:09;20.10;49.20
16313;DHT22;8265;52.622;13.296;2023-06-10T21:26:30;20.00;50.50
16313;DHT22;8265;52.622;13.296;2023-06-10T21:31:51;19.70;50.50
16313;DHT22;8265;52.622;13.296;2023-06-10T21:37:12;19.50;53.20
16313;DHT22;8265;52.622;13.296;2023-06-10T21:42:33;19.30;53.30
16313;DHT22;8265;52.622;13.296;2023-06-10T21:47:54;19.20;51.60
16313;DHT22;8265;52.622;13.296;2023-06-10T21:53:15;19.10;52.60
16313;DHT22;8265;52.622;13.296;2023-06-10T21:58:36;18.90;53.10
16313;DHT22;8265;52.622;13.296;2023-06-10T22:03:57;18.80;52.70
16313;DHT22;8265;52.622;13.296;2023-06-10T22:09:18;18.50;52.90
16313;DHT22;8265;52.622;13.296;2023-06-10T22:14:39;18.20;54.10
16313;DHT22;8265;52.622;13.296;2023-06-10T22:20:00;18.00;53.90
16313;DHT22;8265;52.622;13.296;2023-06-10T22:25:21;17.80;54.90
16313;DHT22;8265;52.622;13.296;2023-06-10T22:30:42;17.70;55.30
16313;DHT22;8265;52.622;13.296;2023-06-10T22:36:03;17.50;55.20
16313;DHT22;8265;52.622;13.296;2023-06-10T22:41:24;17.50;55.60
16313;DHT22;8265;52.622;13.296;2023-06-10T22:46:45;17.30;57.30
16313;DHT22;8265;52.622;13.296;2023-06-10T22:52:07;17.00;56.60
16313;DHT22;8265;52.622;13.296;2023-06-10T22:57:27;16.90;56.30
16313;DHT22;8265;52.622;13.296;2023-06-10T23:02:48;16.80;57.30
16313;DHT22;8265;52.622;13.296;2023-06-10T23:08:09;16.80;57.00
16313;DHT22;8265;52.622;13.296;2023-06-10T23:13:30;16.70;57.70
16313;DHT22;8265;52.622;13.296;2023-06-10T23:18:51;16.50;56.70
16313;DHT22;8265;52.622;13.296;2023-06-10T23:24:12;16.40;58.30
16313;DHT22;8265;52.622;13.296;2023-06-10T23:29:33;16.40;57.80
16313;DHT22;8265;52.622;13.296;2023-06-10T23:34:54;16.30;58.40
16313;DHT22;8265;52.622;13.296;2023-06-10T23:40:15;16.00;59.30
16313;DHT22;8265;52.622;13.296;2023-06-10T23:45:36;15.80;59.20
16313;DHT22;8265;52.622;13.296;2023-06-10T23:50:57;15.80;59.10
16313;DHT22;8265;52.622;13.296;2023-06-10T23:56:20;15.60;59.70
